sensor_id;sensor_type;location;lat;lon;timestamp;pressure;altitude;pressure_sealevel;temperature;humidity
64064;BME280;50314;50.618;10.642;2023-03-23T00:01:55;95901.22;;;17.84;24.71
64064;BME280;50314;50.618;10.642;2023-03-23T00:04:21;95888.94;;;17.83;24.89
64064;BME280;50314;50.618;10.642;2023-03-23T00:06:46;95882.75;;;17.83;25.02
64064;BME280;50314;50.618;10.642;2023-03-23T00:09:14;95885.59;;;17.81;25.11
64064;BME280;50314;50.618;10.642;2023-03-23T00:11:40;95887.44;;;17.81;24.79
64064;BME280;50314;50.618;10.642;2023-03-23T00:14:06;95885.78;;;17.80;24.97
64064;BME280;50314;50.618;10.642;2023-03-23T00:16:39;95885.78;;;17.80;25.00
64064;BME280;50314;50.618;10.642;2023-03-23T00:19:08;95879.81;;;17.78;24.73
64064;BME280;50314;50.618;10.642;2023-03-23T00:21:38;95873.66;;;17.77;25.00
64064;BME280;50314;50.618;10.642;2023-03-23T00:24:11;95870.16;;;17.77;24.94
64064;BME280;50314;50.618;10.642;2023-03-23T00:26:39;95876.47;;;17.76;25.12
64064;BME280;50314;50.618;10.642;2023-03-23T00:29:28;95866.56;;;17.70;24.88
64064;BME280;50314;50.618;10.642;2023-03-23T00:31:54;95872.34;;;17.73;24.96
64064;BME280;50314;50.618;10.642;2023-03-23T00:34:22;95870.53;;;17.74;24.83
64064;BME280;50314;50.618;10.642;2023-03-23T00:36:54;95861.88;;;17.72;25.21
64064;BME280;50314;50.618;10.642;2023-03-23T00:39:22;95864.38;;;17.73;25.12
64064;BME280;50314;50.618;10.642;2023-03-23T00:41:50;95864.53;;;17.72;24.91
64064;BME280;50314;50.618;10.642;2023-03-23T00:44:16;95854.06;;;17.70;25.02
64064;BME280;50314;50.618;10.642;2023-03-23T00:46:43;95864.72;;;17.70;24.79
64064;BME280;50314;50.618;10.642;2023-03-23T00:49:13;95855.06;;;17.69;24.88
64064;BME280;50314;50.618;10.642;2023-03-23T00:51:40;95857.72;;;17.69;25.09
64064;BME280;50314;50.618;10.642;2023-03-23T00:54:06;95853.41;;;17.68;24.79
64064;BME280;50314;50.618;10.642;2023-03-23T00:56:32;95849.94;;;17.68;24.91
64064;BME280;50314;50.618;10.642;2023-03-23T00:58:58;95860.75;;;17.66;24.98
64064;BME280;50314;50.618;10.642;2023-03-23T01:01:24;95846.78;;;17.64;25.22
64064;BME280;50314;50.618;10.642;2023-03-23T01:03:49;95841.47;;;17.64;25.08
64064;BME280;50314;50.618;10.642;2023-03-23T01:06:15;95840.66;;;17.64;24.97
64064;BME280;50314;50.618;10.642;2023-03-23T01:08:41;95838.16;;;17.62;25.17
64064;BME280;50314;50.618;10.642;2023-03-23T01:11:13;95843.47;;;17.62;25.08
64064;BME280;50314;50.618;10.642;2023-03-23T01:13:40;95832.00;;;17.61;25.00
64064;BME280;50314;50.618;10.642;2023-03-23T01:16:07;95840.19;;;17.60;25.05
64064;BME280;50314;50.618;10.642;2023-03-23T01:18:32;95832.19;;;17.60;25.21
64064;BME280;50314;50.618;10.642;2023-03-23T01:20:57;95834.03;;;17.59;25.13
64064;BME280;50314;50.618;10.642;2023-03-23T01:23:28;95833.16;;;17.59;24.88
64064;BME280;50314;50.618;10.642;2023-03-23T01:25:53;95829.69;;;17.58;24.88
64064;BME280;50314;50.618;10.642;2023-03-23T01:28:22;95838.50;;;17.59;25.01
64064;BME280;50314;50.618;10.642;2023-03-23T01:30:48;95847.50;;;17.58;24.82
64064;BME280;50314;50.618;10.642;2023-03-23T01:33:13;95837.88;;;17.57;25.13
64064;BME280;50314;50.618;10.642;2023-03-23T01:35:39;95829.88;;;17.57;25.12
64064;BME280;50314;50.618;10.642;2023-03-23T01:38:04;95820.22;;;17.56;24.95
64064;BME280;50314;50.618;10.642;2023-03-23T01:40:29;95823.06;;;17.54;24.99
64064;BME280;50314;50.618;10.642;2023-03-23T01:42:55;95828.19;;;17.56;24.97
64064;BME280;50314;50.618;10.642;2023-03-23T01:45:28;95821.22;;;17.55;24.96
64064;BME280;50314;50.618;10.642;2023-03-23T01:48:02;95819.13;;;17.50;24.93
64064;BME280;50314;50.618;10.642;2023-03-23T01:50:30;95816.25;;;17.52;24.95
64064;BME280;50314;50.618;10.642;2023-03-23T01:53:01;95822.41;;;17.52;24.82
64064;BME280;50314;50.618;10.642;2023-03-23T01:55:27;95816.25;;;17.52;24.90
64064;BME280;50314;50.618;10.642;2023-03-23T01:57:54;95818.09;;;17.51;24.98
64064;BME280;50314;50.618;10.642;2023-03-23T02:00:21;95813.78;;;17.50;25.07
64064;BME280;50314;50.618;10.642;2023-03-23T02:02:49;95817.44;;;17.49;24.75
64064;BME280;50314;50.618;10.642;2023-03-23T02:05:31;95810.63;;;17.47;24.92
64064;BME280;50314;50.618;10.642;2023-03-23T02:07:59;95810.63;;;17.47;25.26
64064;BME280;50314;50.618;10.642;2023-03-23T02:10:31;95806.97;;;17.48;24.84
64064;BME280;50314;50.618;10.642;2023-03-23T02:12:58;95807.97;;;17.47;25.16
64064;BME280;50314;50.618;10.642;2023-03-23T02:15:28;95805.47;;;17.45;25.17
64064;BME280;50314;50.618;10.642;2023-03-23T02:18:07;95792.34;;;17.44;25.16
64064;BME280;50314;50.618;10.642;2023-03-23T02:23:42;95792.03;;;17.38;25.13
64064;BME280;50314;50.618;10.642;2023-03-23T02:29:03;95788.75;;;17.36;25.20
64064;BME280;50314;50.618;10.642;2023-03-23T02:34:15;95779.09;;;17.35;25.35
64064;BME280;50314;50.618;10.642;2023-03-23T02:37:08;95773.41;;;17.38;25.12
64064;BME280;50314;50.618;10.642;2023-03-23T02:39:43;95775.44;;;17.36;25.19
64064;BME280;50314;50.618;10.642;2023-03-23T02:42:12;95776.91;;;17.39;24.98
64064;BME280;50314;50.618;10.642;2023-03-23T02:44:42;95771.56;;;17.39;25.08
64064;BME280;50314;50.618;10.642;2023-03-23T02:47:16;95778.72;;;17.38;24.96
64064;BME280;50314;50.618;10.642;2023-03-23T02:49:45;95784.06;;;17.38;25.24
64064;BME280;50314;50.618;10.642;2023-03-23T02:52:16;95782.59;;;17.36;25.25
64064;BME280;50314;50.618;10.642;2023-03-23T02:54:45;95777.91;;;17.38;25.14
64064;BME280;50314;50.618;10.642;2023-03-23T02:57:11;95784.06;;;17.38;25.12
64064;BME280;50314;50.618;10.642;2023-03-23T02:59:37;95773.41;;;17.38;24.87
64064;BME280;50314;50.618;10.642;2023-03-23T03:02:07;95767.44;;;17.36;25.25
64064;BME280;50314;50.618;10.642;2023-03-23T03:04:36;95767.44;;;17.36;25.31
64064;BME280;50314;50.618;10.642;2023-03-23T03:09:55;95768.16;;;17.30;25.02
64064;BME280;50314;50.618;10.642;2023-03-23T03:12:34;95762.19;;;17.28;25.16
64064;BME280;50314;50.618;10.642;2023-03-23T03:17:53;95765.84;;;17.27;25.33
64064;BME280;50314;50.618;10.642;2023-03-23T03:20:21;95773.28;;;17.32;25.28
64064;BME280;50314;50.618;10.642;2023-03-23T03:22:50;95770.00;;;17.30;24.94
64064;BME280;50314;50.618;10.642;2023-03-23T03:25:19;95770.81;;;17.30;24.98
64064;BME280;50314;50.618;10.642;2023-03-23T03:27:46;95780.66;;;17.30;25.26
64064;BME280;50314;50.618;10.642;2023-03-23T03:30:16;95776.16;;;17.30;25.29
64064;BME280;50314;50.618;10.642;2023-03-23T03:32:48;95771.84;;;17.29;25.15
64064;BME280;50314;50.618;10.642;2023-03-23T03:35:16;95775.31;;;17.30;25.23
64064;BME280;50314;50.618;10.642;2023-03-23T03:37:42;95776.16;;;17.30;25.09
64064;BME280;50314;50.618;10.642;2023-03-23T03:40:12;95770.16;;;17.28;25.32
64064;BME280;50314;50.618;10.642;2023-03-23T03:42:39;95760.34;;;17.29;25.24
64064;BME280;50314;50.618;10.642;2023-03-23T03:45:11;95769.19;;;17.29;25.22
64064;BME280;50314;50.618;10.642;2023-03-23T03:47:36;95769.19;;;17.29;25.14
64064;BME280;50314;50.618;10.642;2023-03-23T03:50:02;95767.50;;;17.28;25.26
64064;BME280;50314;50.618;10.642;2023-03-23T03:52:28;95764.00;;;17.28;25.05
64064;BME280;50314;50.618;10.642;2023-03-23T03:54:54;95765.03;;;17.27;25.03
64064;BME280;50314;50.618;10.642;2023-03-23T03:57:21;95765.84;;;17.27;25.21
64064;BME280;50314;50.618;10.642;2023-03-23T03:59:46;95752.75;;;17.26;25.08
64064;BME280;50314;50.618;10.642;2023-03-23T04:02:12;95766.03;;;17.26;25.29
64064;BME280;50314;50.618;10.642;2023-03-23T04:04:48;95767.84;;;17.25;25.03
64064;BME280;50314;50.618;10.642;2023-03-23T04:07:14;95762.53;;;17.25;25.06
64064;BME280;50314;50.618;10.642;2023-03-23T04:09:44;95772.34;;;17.25;25.11
64064;BME280;50314;50.618;10.642;2023-03-23T04:12:14;95771.38;;;17.26;25.32
64064;BME280;50314;50.618;10.642;2023-03-23T04:14:40;95765.19;;;17.25;25.32
64064;BME280;50314;50.618;10.642;2023-03-23T04:17:05;95773.16;;;17.25;25.24
64064;BME280;50314;50.618;10.642;2023-03-23T04:19:32;95766.22;;;17.24;25.23
64064;BME280;50314;50.618;10.642;2023-03-23T04:21:59;95771.53;;;17.24;25.27
64064;BME280;50314;50.618;10.642;2023-03-23T04:24:25;95779.50;;;17.24;25.15
64064;BME280;50314;50.618;10.642;2023-03-23T04:26:53;95777.88;;;17.23;25.10
64064;BME280;50314;50.618;10.642;2023-03-23T04:29:19;95774.38;;;17.23;25.33
64064;BME280;50314;50.618;10.642;2023-03-23T04:31:45;95778.84;;;17.22;25.23
64064;BME280;50314;50.618;10.642;2023-03-23T04:34:11;95784.16;;;17.22;25.28
64064;BME280;50314;50.618;10.642;2023-03-23T04:36:40;95773.53;;;17.22;25.33
64064;BME280;50314;50.618;10.642;2023-03-23T04:39:06;95785.03;;;17.23;25.11
64064;BME280;50314;50.618;10.642;2023-03-23T04:41:38;95776.19;;;17.22;25.35
64064;BME280;50314;50.618;10.642;2023-03-23T04:44:05;95773.53;;;17.22;25.24
64064;BME280;50314;50.618;10.642;2023-03-23T04:46:30;95767.56;;;17.20;25.09
64064;BME280;50314;50.618;10.642;2023-03-23T04:48:57;95769.22;;;17.21;25.31
64064;BME280;50314;50.618;10.642;2023-03-23T04:51:26;95779.84;;;17.21;25.18
64064;BME280;50314;50.618;10.642;2023-03-23T04:53:53;95787.84;;;17.21;25.25
64064;BME280;50314;50.618;10.642;2023-03-23T04:56:19;95787.03;;;17.21;25.00
64064;BME280;50314;50.618;10.642;2023-03-23T04:58:45;95782.53;;;17.21;25.21
64064;BME280;50314;50.618;10.642;2023-03-23T05:01:11;95784.34;;;17.21;25.25
64064;BME280;50314;50.618;10.642;2023-03-23T05:03:40;95788.84;;;17.20;25.32
64064;BME280;50314;50.618;10.642;2023-03-23T05:06:06;95788.84;;;17.20;25.15
64064;BME280;50314;50.618;10.642;2023-03-23T05:08:32;95796.84;;;17.20;25.36
64064;BME280;50314;50.618;10.642;2023-03-23T05:10:59;95789.69;;;17.21;25.07
64064;BME280;50314;50.618;10.642;2023-03-23T05:13:25;95796.84;;;17.20;25.12
64064;BME280;50314;50.618;10.642;2023-03-23T05:15:51;95795.19;;;17.19;25.26
64064;BME280;50314;50.618;10.642;2023-03-23T05:18:16;95794.34;;;17.19;25.35
64064;BME280;50314;50.618;10.642;2023-03-23T05:20:42;95793.50;;;17.18;25.28
64064;BME280;50314;50.618;10.642;2023-03-23T05:23:09;95798.00;;;17.18;25.24
64064;BME280;50314;50.618;10.642;2023-03-23T05:25:35;95804.16;;;17.18;25.32
64064;BME280;50314;50.618;10.642;2023-03-23T05:28:02;95793.72;;;17.17;25.18
64064;BME280;50314;50.618;10.642;2023-03-23T05:30:27;95793.03;;;17.14;25.18
64064;BME280;50314;50.618;10.642;2023-03-23T05:32:53;95799.19;;;17.15;25.29
64064;BME280;50314;50.618;10.642;2023-03-23T05:35:19;95792.22;;;17.14;25.11
64064;BME280;50314;50.618;10.642;2023-03-23T05:37:45;95796.72;;;17.13;25.15
64064;BME280;50314;50.618;10.642;2023-03-23T05:40:11;95799.38;;;17.13;25.22
64064;BME280;50314;50.618;10.642;2023-03-23T05:42:38;95790.56;;;17.13;25.28
64064;BME280;50314;50.618;10.642;2023-03-23T05:45:05;95802.03;;;17.13;25.30
64064;BME280;50314;50.618;10.642;2023-03-23T05:47:32;95790.56;;;17.13;25.40
64064;BME280;50314;50.618;10.642;2023-03-23T05:49:57;95792.41;;;17.12;25.51
64064;BME280;50314;50.618;10.642;2023-03-23T05:52:23;95802.84;;;17.14;25.38
64064;BME280;50314;50.618;10.642;2023-03-23T05:54:51;95811.03;;;17.12;25.44
64064;BME280;50314;50.618;10.642;2023-03-23T05:57:17;95811.84;;;17.13;25.23
64064;BME280;50314;50.618;10.642;2023-03-23T05:59:44;95819.84;;;17.13;25.37
64064;BME280;50314;50.618;10.642;2023-03-23T06:02:10;95818.81;;;17.14;25.35
64064;BME280;50314;50.618;10.642;2023-03-23T06:04:36;95827.00;;;17.12;25.43
64064;BME280;50314;50.618;10.642;2023-03-23T06:07:04;95824.16;;;17.14;25.63
64064;BME280;50314;50.618;10.642;2023-03-23T06:09:29;95838.47;;;17.13;25.46
64064;BME280;50314;50.618;10.642;2023-03-23T06:11:55;95837.63;;;17.12;25.68
64064;BME280;50314;50.618;10.642;2023-03-23T06:14:21;95840.94;;;17.14;25.47
64064;BME280;50314;50.618;10.642;2023-03-23T06:16:47;95843.44;;;17.16;25.35
64064;BME280;50314;50.618;10.642;2023-03-23T06:19:13;95851.22;;;17.18;25.62
64064;BME280;50314;50.618;10.642;2023-03-23T06:21:41;95852.06;;;17.18;25.61
64064;BME280;50314;50.618;10.642;2023-03-23T06:24:07;95850.06;;;17.20;25.29
64064;BME280;50314;50.618;10.642;2023-03-23T06:26:37;95859.06;;;17.19;25.30
64064;BME280;50314;50.618;10.642;2023-03-23T06:29:05;95855.38;;;17.20;25.39
64064;BME280;50314;50.618;10.642;2023-03-23T06:31:41;95859.69;;;17.21;25.43
64064;BME280;50314;50.618;10.642;2023-03-23T06:34:08;95863.16;;;17.22;25.40
64064;BME280;50314;50.618;10.642;2023-03-23T06:36:35;95861.34;;;17.22;25.54
64064;BME280;50314;50.618;10.642;2023-03-23T06:39:01;95865.69;;;17.23;25.46
64064;BME280;50314;50.618;10.642;2023-03-23T06:41:29;95855.03;;;17.23;25.31
64064;BME280;50314;50.618;10.642;2023-03-23T06:43:55;95855.84;;;17.24;25.40
64064;BME280;50314;50.618;10.642;2023-03-23T06:46:20;95865.69;;;17.23;25.42
64064;BME280;50314;50.618;10.642;2023-03-23T06:48:46;95867.16;;;17.26;25.34
64064;BME280;50314;50.618;10.642;2023-03-23T06:51:15;95860.81;;;17.27;25.30
64064;BME280;50314;50.618;10.642;2023-03-23T06:53:40;95864.31;;;17.27;25.46
64064;BME280;50314;50.618;10.642;2023-03-23T06:56:06;95860.81;;;17.27;25.54
64064;BME280;50314;50.618;10.642;2023-03-23T06:58:32;95855.31;;;17.28;25.39
64064;BME280;50314;50.618;10.642;2023-03-23T07:00:58;95857.97;;;17.28;25.37
64064;BME280;50314;50.618;10.642;2023-03-23T07:03:24;95856.13;;;17.29;25.44
64064;BME280;50314;50.618;10.642;2023-03-23T07:05:49;95849.16;;;17.28;25.39
64064;BME280;50314;50.618;10.642;2023-03-23T07:08:15;95857.00;;;17.29;25.41
64064;BME280;50314;50.618;10.642;2023-03-23T07:10:41;95855.78;;;17.32;25.45
64064;BME280;50314;50.618;10.642;2023-03-23T07:13:06;95860.13;;;17.33;25.60
64064;BME280;50314;50.618;10.642;2023-03-23T07:15:32;95856.63;;;17.32;25.58
64064;BME280;50314;50.618;10.642;2023-03-23T07:17:57;95858.28;;;17.33;25.34
64064;BME280;50314;50.618;10.642;2023-03-23T07:20:23;95855.63;;;17.33;25.38
64064;BME280;50314;50.618;10.642;2023-03-23T07:22:49;95864.25;;;17.35;25.59
64064;BME280;50314;50.618;10.642;2023-03-23T07:25:15;95871.25;;;17.36;25.39
64064;BME280;50314;50.618;10.642;2023-03-23T07:27:41;95863.06;;;17.38;25.39
64064;BME280;50314;50.618;10.642;2023-03-23T07:30:07;95864.72;;;17.39;25.38
64064;BME280;50314;50.618;10.642;2023-03-23T07:32:32;95859.25;;;17.41;25.50
64064;BME280;50314;50.618;10.642;2023-03-23T07:34:58;95858.06;;;17.43;25.44
64064;BME280;50314;50.618;10.642;2023-03-23T07:37:24;95868.53;;;17.45;25.32
64064;BME280;50314;50.618;10.642;2023-03-23T07:39:49;95859.41;;;17.47;25.67
64064;BME280;50314;50.618;10.642;2023-03-23T07:42:15;95855.56;;;17.50;25.32
64064;BME280;50314;50.618;10.642;2023-03-23T07:44:40;95869.50;;;17.52;25.35
64064;BME280;50314;50.618;10.642;2023-03-23T07:47:06;95872.81;;;17.54;25.71
64064;BME280;50314;50.618;10.642;2023-03-23T07:49:32;95876.13;;;17.56;25.43
64064;BME280;50314;50.618;10.642;2023-03-23T07:51:57;95873.97;;;17.59;25.34
64064;BME280;50314;50.618;10.642;2023-03-23T07:54:24;95870.09;;;17.62;25.39
64064;BME280;50314;50.618;10.642;2023-03-23T07:56:49;95882.03;;;17.66;25.35
64064;BME280;50314;50.618;10.642;2023-03-23T07:59:16;95878.19;;;17.69;25.55
64064;BME280;50314;50.618;10.642;2023-03-23T08:01:41;95874.38;;;17.71;25.29
64064;BME280;50314;50.618;10.642;2023-03-23T08:04:06;95877.50;;;17.75;25.60
64064;BME280;50314;50.618;10.642;2023-03-23T08:06:33;95871.00;;;17.77;25.70
64064;BME280;50314;50.618;10.642;2023-03-23T08:08:59;95876.94;;;17.79;25.38
64064;BME280;50314;50.618;10.642;2023-03-23T08:11:26;95866.75;;;17.83;25.56
64064;BME280;50314;50.618;10.642;2023-03-23T08:13:52;95872.41;;;17.88;25.58
64064;BME280;50314;50.618;10.642;2023-03-23T08:16:18;95889.50;;;17.94;25.44
64064;BME280;50314;50.618;10.642;2023-03-23T08:18:45;95887.13;;;17.99;25.37
64064;BME280;50314;50.618;10.642;2023-03-23T08:21:12;95892.75;;;18.04;25.27
64064;BME280;50314;50.618;10.642;2023-03-23T08:23:38;95889.72;;;18.07;25.56
64064;BME280;50314;50.618;10.642;2023-03-23T08:26:05;95884.88;;;18.11;25.22
64064;BME280;50314;50.618;10.642;2023-03-23T08:28:35;95892.34;;;18.15;25.18
64064;BME280;50314;50.618;10.642;2023-03-23T08:31:09;95885.16;;;18.16;25.15
64064;BME280;50314;50.618;10.642;2023-03-23T08:33:35;95896.13;;;18.21;25.05
64064;BME280;50314;50.618;10.642;2023-03-23T08:36:02;95892.09;;;18.25;25.59
64064;BME280;50314;50.618;10.642;2023-03-23T08:38:28;95899.72;;;18.28;25.24
64064;BME280;50314;50.618;10.642;2023-03-23T08:41:01;95897.06;;;18.28;25.49
64064;BME280;50314;50.618;10.642;2023-03-23T08:43:28;95893.84;;;18.33;25.00
64064;BME280;50314;50.618;10.642;2023-03-23T08:45:54;95899.63;;;18.36;25.19
64064;BME280;50314;50.618;10.642;2023-03-23T08:48:20;95893.94;;;18.39;25.04
64064;BME280;50314;50.618;10.642;2023-03-23T08:50:46;95893.78;;;18.41;25.38
64064;BME280;50314;50.618;10.642;2023-03-23T08:53:12;95905.72;;;18.45;25.39
64064;BME280;50314;50.618;10.642;2023-03-23T08:55:37;95904.72;;;18.46;25.08
64064;BME280;50314;50.618;10.642;2023-03-23T08:58:05;95909.03;;;18.47;25.22
64064;BME280;50314;50.618;10.642;2023-03-23T09:00:30;95915.22;;;18.47;25.46
64064;BME280;50314;50.618;10.642;2023-03-23T09:02:56;95917.69;;;18.49;25.17
64064;BME280;50314;50.618;10.642;2023-03-23T09:05:23;95918.50;;;18.49;25.31
64064;BME280;50314;50.618;10.642;2023-03-23T09:07:51;95916.84;;;18.48;25.30
64064;BME280;50314;50.618;10.642;2023-03-23T09:10:17;95913.16;;;18.49;25.46
64064;BME280;50314;50.618;10.642;2023-03-23T09:12:44;95920.34;;;18.49;25.16
64064;BME280;50314;50.618;10.642;2023-03-23T09:15:12;95909.69;;;18.49;24.95
64064;BME280;50314;50.618;10.642;2023-03-23T09:17:41;95915.84;;;18.49;25.39
64064;BME280;50314;50.618;10.642;2023-03-23T09:20:09;95911.16;;;18.51;25.38
64064;BME280;50314;50.618;10.642;2023-03-23T09:22:39;95913.63;;;18.53;25.31
64064;BME280;50314;50.618;10.642;2023-03-23T09:25:07;95909.13;;;18.53;25.06
64064;BME280;50314;50.618;10.642;2023-03-23T09:27:34;95914.28;;;18.55;25.25
64064;BME280;50314;50.618;10.642;2023-03-23T09:30:05;95908.94;;;18.55;25.39
64064;BME280;50314;50.618;10.642;2023-03-23T09:32:33;95914.91;;;18.57;25.28
64064;BME280;50314;50.618;10.642;2023-03-23T09:35:00;95906.75;;;18.59;25.38
64064;BME280;50314;50.618;10.642;2023-03-23T09:37:26;95898.56;;;18.60;25.42
64064;BME280;50314;50.618;10.642;2023-03-23T09:39:51;95900.03;;;18.63;25.00
64064;BME280;50314;50.618;10.642;2023-03-23T09:42:34;95914.38;;;18.62;25.00
64064;BME280;50314;50.618;10.642;2023-03-23T09:45:31;95922.19;;;18.63;25.22
64064;BME280;50314;50.618;10.642;2023-03-23T09:50:34;95926.78;;;18.69;25.33
64064;BME280;50314;50.618;10.642;2023-03-23T09:53:03;95933.63;;;18.72;25.36
64064;BME280;50314;50.618;10.642;2023-03-23T09:55:30;95937.94;;;18.73;24.92
64064;BME280;50314;50.618;10.642;2023-03-23T09:58:08;95935.09;;;18.74;24.86
64064;BME280;50314;50.618;10.642;2023-03-23T10:00:39;95936.41;;;18.78;25.04
64064;BME280;50314;50.618;10.642;2023-03-23T10:03:17;95926.72;;;18.77;25.19
64064;BME280;50314;50.618;10.642;2023-03-23T10:05:46;95925.84;;;18.85;25.11
64064;BME280;50314;50.618;10.642;2023-03-23T10:08:18;95931.63;;;18.89;25.29
64064;BME280;50314;50.618;10.642;2023-03-23T10:10:54;95932.09;;;18.92;25.38
64064;BME280;50314;50.618;10.642;2023-03-23T10:13:27;95927.00;;;18.97;24.98
64064;BME280;50314;50.618;10.642;2023-03-23T10:15:57;95930.78;;;19.03;25.16
64064;BME280;50314;50.618;10.642;2023-03-23T10:18:32;95946.63;;;19.05;24.90
64064;BME280;50314;50.618;10.642;2023-03-23T10:21:00;95943.75;;;19.06;25.15
64064;BME280;50314;50.618;10.642;2023-03-23T10:28:50;95950.38;;;19.10;24.94
64064;BME280;50314;50.618;10.642;2023-03-23T10:31:49;95943.66;;;19.14;25.37
64064;BME280;50314;50.618;10.642;2023-03-23T10:34:21;95936.47;;;19.30;24.89
64064;BME280;50314;50.618;10.642;2023-03-23T10:37:25;95936.53;;;19.36;25.06
64064;BME280;50314;50.618;10.642;2023-03-23T10:39:54;95938.56;;;19.49;25.03
64064;BME280;50314;50.618;10.642;2023-03-23T10:42:34;95939.84;;;19.53;24.64
64064;BME280;50314;50.618;10.642;2023-03-23T10:45:25;95948.31;;;19.57;25.04
64064;BME280;50314;50.618;10.642;2023-03-23T10:48:01;95935.41;;;19.60;24.82
64064;BME280;50314;50.618;10.642;2023-03-23T10:50:32;95945.34;;;19.66;24.70
64064;BME280;50314;50.618;10.642;2023-03-23T10:53:00;95940.44;;;19.70;24.58
64064;BME280;50314;50.618;10.642;2023-03-23T10:55:38;95927.91;;;19.70;24.78
64064;BME280;50314;50.618;10.642;2023-03-23T10:58:09;95924.50;;;19.77;24.77
64064;BME280;50314;50.618;10.642;2023-03-23T11:00:41;95922.63;;;19.77;24.66
64064;BME280;50314;50.618;10.642;2023-03-23T11:05:49;95911.00;;;19.85;24.52
64064;BME280;50314;50.618;10.642;2023-03-23T11:08:18;95926.47;;;19.89;24.41
64064;BME280;50314;50.618;10.642;2023-03-23T11:13:17;95935.03;;;20.00;24.46
64064;BME280;50314;50.618;10.642;2023-03-23T11:15:44;95939.59;;;20.06;24.48
64064;BME280;50314;50.618;10.642;2023-03-23T11:18:18;95937.38;;;20.09;24.44
64064;BME280;50314;50.618;10.642;2023-03-23T11:20:45;95936.97;;;20.12;24.34
64064;BME280;50314;50.618;10.642;2023-03-23T11:23:20;95931.63;;;20.12;24.61
64064;BME280;50314;50.618;10.642;2023-03-23T11:26:14;95937.63;;;20.14;24.47
64064;BME280;50314;50.618;10.642;2023-03-23T11:29:08;95927.94;;;20.13;24.25
64064;BME280;50314;50.618;10.642;2023-03-23T11:31:40;95928.84;;;20.21;24.27
64064;BME280;50314;50.618;10.642;2023-03-23T11:34:13;95923.09;;;20.24;24.24
64064;BME280;50314;50.618;10.642;2023-03-23T11:36:43;95928.31;;;20.32;24.40
64064;BME280;50314;50.618;10.642;2023-03-23T11:39:31;95929.13;;;20.32;24.39
64064;BME280;50314;50.618;10.642;2023-03-23T11:42:10;95927.91;;;20.35;24.23
64064;BME280;50314;50.618;10.642;2023-03-23T11:44:41;95937.59;;;20.36;24.25
64064;BME280;50314;50.618;10.642;2023-03-23T11:50:03;95931.63;;;20.34;24.33
64064;BME280;50314;50.618;10.642;2023-03-23T11:52:42;95924.59;;;20.33;24.32
64064;BME280;50314;50.618;10.642;2023-03-23T11:58:13;95933.84;;;20.30;24.43
64064;BME280;50314;50.618;10.642;2023-03-23T12:01:14;95934.41;;;20.26;24.30
64064;BME280;50314;50.618;10.642;2023-03-23T12:03:51;95937.72;;;20.28;24.21
64064;BME280;50314;50.618;10.642;2023-03-23T12:06:36;95942.19;;;20.21;24.43
64064;BME280;50314;50.618;10.642;2023-03-23T12:09:12;95933.91;;;20.15;24.10
64064;BME280;50314;50.618;10.642;2023-03-23T12:18:19;95947.88;;;20.11;24.15
64064;BME280;50314;50.618;10.642;2023-03-23T12:26:12;95947.81;;;20.04;24.29
64064;BME280;50314;50.618;10.642;2023-03-23T12:48:24;95917.88;;;20.15;24.52
64064;BME280;50314;50.618;10.642;2023-03-23T12:51:19;95916.50;;;20.20;24.40
64064;BME280;50314;50.618;10.642;2023-03-23T12:53:54;95908.97;;;20.30;24.41
64064;BME280;50314;50.618;10.642;2023-03-23T12:56:42;95906.91;;;20.32;24.21
64064;BME280;50314;50.618;10.642;2023-03-23T13:01:47;95914.84;;;20.47;24.12
64064;BME280;50314;50.618;10.642;2023-03-23T13:04:37;95910.31;;;20.47;24.05
64064;BME280;50314;50.618;10.642;2023-03-23T13:07:08;95910.16;;;20.55;23.90
64064;BME280;50314;50.618;10.642;2023-03-23T13:09:51;95900.94;;;20.58;24.16
64064;BME280;50314;50.618;10.642;2023-03-23T13:12:19;95911.28;;;20.61;24.15
64064;BME280;50314;50.618;10.642;2023-03-23T13:15:00;95895.59;;;20.58;24.38
64064;BME280;50314;50.618;10.642;2023-03-23T13:20:39;95902.13;;;20.55;23.97
64064;BME280;50314;50.618;10.642;2023-03-23T13:23:50;95900.06;;;20.51;24.02
64064;BME280;50314;50.618;10.642;2023-03-23T13:26:18;95903.34;;;20.53;24.12
64064;BME280;50314;50.618;10.642;2023-03-23T13:28:49;95895.72;;;20.50;23.92
64064;BME280;50314;50.618;10.642;2023-03-23T13:31:19;95895.94;;;20.48;23.97
64064;BME280;50314;50.618;10.642;2023-03-23T13:33:51;95887.25;;;20.46;23.82
64064;BME280;50314;50.618;10.642;2023-03-23T13:36:29;95879.00;;;20.41;24.16
64064;BME280;50314;50.618;10.642;2023-03-23T13:38:57;95887.69;;;20.43;24.27
64064;BME280;50314;50.618;10.642;2023-03-23T13:41:24;95895.06;;;20.41;24.14
64064;BME280;50314;50.618;10.642;2023-03-23T13:43:51;95896.25;;;20.38;24.06
64064;BME280;50314;50.618;10.642;2023-03-23T13:46:29;95885.53;;;20.32;23.93
64064;BME280;50314;50.618;10.642;2023-03-23T13:49:16;95889.59;;;20.28;23.95
64064;BME280;50314;50.618;10.642;2023-03-23T13:54:29;95906.25;;;20.23;24.09
64064;BME280;50314;50.618;10.642;2023-03-23T13:57:00;95905.81;;;20.20;24.28
64064;BME280;50314;50.618;10.642;2023-03-23T14:01:53;95882.13;;;20.16;24.24
64064;BME280;50314;50.618;10.642;2023-03-23T14:04:21;95883.34;;;20.14;24.11
64064;BME280;50314;50.618;10.642;2023-03-23T14:06:49;95884.53;;;20.11;24.09
64064;BME280;50314;50.618;10.642;2023-03-23T14:11:55;95882.84;;;20.04;24.38
64064;BME280;50314;50.618;10.642;2023-03-23T14:14:25;95885.50;;;20.04;24.12
64064;BME280;50314;50.618;10.642;2023-03-23T14:16:52;95892.88;;;20.02;24.24
64064;BME280;50314;50.618;10.642;2023-03-23T14:19:27;95898.78;;;19.97;24.55
64064;BME280;50314;50.618;10.642;2023-03-23T14:21:59;95885.41;;;19.97;24.29